Time;durP1;ratioP1;P1;durP2;ratioP2;P2;SDS_P1;SDS_P2;PMS_P1;PMS_P2;Temp;Humidity;BMP_temperature;BMP_pressure;BME280_temperature;BME280_humidity;BME280_pressure;Samples;Min_cycle;Max_cycle;Signal;HPM_P1;HPM_P2
2021/05/18 00:01:10;;;;;;;;;;;;;;;21.40;49.32;100878.75;2207372;39;114042;-56
2021/05/18 00:02:42;;;;;;;;;;;;;;;21.39;49.47;100880.75;2214338;39;113801;-55
2021/05/18 00:04:13;;;;;;;;;;;;;;;21.37;49.17;100888.66;2209475;39;114736;-55
2021/05/18 00:05:47;;;;;;;;;;;;;;;21.37;49.63;100879.38;2212865;39;114024;-55
2021/05/18 00:07:22;;;;;;;;;;;;;;;21.36;49.26;100872.94;2214341;39;115082;-56
2021/05/18 00:12:12;;;;;;;;;;;;;;;21.37;49.52;100876.56;2216217;39;114806;-55
2021/05/18 00:13:45;;;;;;;;;;;;;;;21.36;49.24;100875.72;2212171;39;113797;-55
2021/05/18 00:15:18;;;;;;;;;;;;;;;21.34;49.83;100871.59;2214557;39;114923;-56
2021/05/18 00:16:51;;;;;;;;;;;;;;;21.35;49.58;100871.25;2215824;39;114822;-57
2021/05/18 00:18:23;;;;;;;;;;;;;;;21.36;50.00;100881.34;2215189;39;114734;-56
2021/05/18 00:19:55;;;;;;;;;;;;;;;21.37;50.17;100876.56;2206820;39;115507;-57
2021/05/18 00:21:27;;;;;;;;;;;;;;;21.36;50.12;100874.91;2214873;39;115440;-56
2021/05/18 00:22:59;;;;;;;;;;;;;;;21.36;50.37;100875.72;2213339;39;114614;-56
2021/05/18 00:24:31;;;;;;;;;;;;;;;21.35;50.47;100874.06;2217151;39;115491;-55
2021/05/18 00:26:03;;;;;;;;;;;;;;;21.34;50.38;100875.25;2216956;39;115481;-56
2021/05/18 00:27:36;;;;;;;;;;;;;;;21.34;50.26;100875.25;2215519;39;115924;-56
2021/05/18 00:29:08;;;;;;;;;;;;;;;21.33;50.04;100876.38;2208703;39;116056;-56
2021/05/18 00:30:41;;;;;;;;;;;;;;;21.33;50.34;100882.00;2209456;39;114507;-55
2021/05/18 00:32:12;;;;;;;;;;;;;;;21.33;50.54;100882.00;2214972;39;115560;-57
2021/05/18 00:33:45;;;;;;;;;;;;;;;21.37;50.39;100882.19;2217464;39;115696;-56
2021/05/18 00:35:17;;;;;;;;;;;;;;;21.35;50.95;100882.50;2216990;39;115710;-56
2021/05/18 00:36:49;;;;;;;;;;;;;;;21.36;50.63;100880.53;2207568;39;115502;-56
2021/05/18 00:38:20;;;;;;;;;;;;;;;21.34;51.15;100878.03;2208267;39;115501;-56
2021/05/18 00:39:53;;;;;;;;;;;;;;;21.37;50.71;100885.00;2208416;39;115467;-56
2021/05/18 00:41:25;;;;;;;;;;;;;;;21.36;50.69;100884.16;2212918;39;113868;-56
2021/05/18 00:42:56;;;;;;;;;;;;;;;21.36;50.71;100881.34;2217405;39;113712;-56
2021/05/18 00:44:28;;;;;;;;;;;;;;;21.36;50.80;100883.34;2217188;39;113744;-56
2021/05/18 00:46:00;;;;;;;;;;;;;;;21.35;50.80;100885.31;2209628;39;114917;-57
2021/05/18 00:47:32;;;;;;;;;;;;;;;21.34;50.49;100889.28;2206952;39;113589;-57
2021/05/18 00:49:04;;;;;;;;;;;;;;;21.34;50.92;100888.44;2214651;39;113884;-56
2021/05/18 00:50:37;;;;;;;;;;;;;;;21.33;50.54;100890.44;2209859;39;114195;-56
2021/05/18 00:52:09;;;;;;;;;;;;;;;21.34;50.46;100888.44;2214567;39;113840;-56
2021/05/18 00:53:41;;;;;;;;;;;;;;;21.33;51.11;100889.59;2207678;39;113894;-57
2021/05/18 00:58:38;;;;;;;;;;;;;;;21.32;51.10;100894.38;2217301;39;113787;-56
2021/05/18 01:00:10;;;;;;;;;;;;;;;21.32;51.41;100899.16;2216878;39;113967;-56
2021/05/18 01:01:42;;;;;;;;;;;;;;;21.32;51.10;100900.00;2215123;39;113782;-56
2021/05/18 01:03:14;;;;;;;;;;;;;;;21.31;51.43;100895.53;2217073;39;113821;-56
2021/05/18 01:04:46;;;;;;;;;;;;;;;21.30;51.14;100900.31;2209046;39;114831;-56
2021/05/18 01:06:24;;;;;;;;;;;;;;;21.30;51.28;100899.50;2207593;39;114982;-56
2021/05/18 01:07:56;;;;;;;;;;;;;;;21.33;51.10;100901.66;2212878;39;114895;-56
2021/05/18 01:09:28;;;;;;;;;;;;;;;21.34;51.64;100903.34;2209598;39;115213;-55
2021/05/18 01:11:00;;;;;;;;;;;;;;;21.34;52.02;100902.50;2214022;39;114785;-56
2021/05/18 01:12:32;;;;;;;;;;;;;;;21.33;51.73;100892.41;2209282;39;114054;-56
2021/05/18 01:14:07;;;;;;;;;;;;;;;21.32;51.54;100905.63;2214039;39;115724;-56
2021/05/18 01:15:39;;;;;;;;;;;;;;;21.31;51.27;100901.13;2203566;39;114550;-56
2021/05/18 01:17:11;;;;;;;;;;;;;;;21.32;51.63;100899.16;2213143;39;114733;-56
2021/05/18 01:18:44;;;;;;;;;;;;;;;21.31;51.55;100909.56;2194758;39;881140;-56
2021/05/18 01:20:16;;;;;;;;;;;;;;;21.32;51.18;100910.41;2213532;39;113866;-56
2021/05/18 01:21:48;;;;;;;;;;;;;;;21.29;51.00;100904.28;2215191;39;114924;-56
2021/05/18 01:23:20;;;;;;;;;;;;;;;21.30;51.42;100913.56;2212036;39;115247;-56
2021/05/18 01:24:52;;;;;;;;;;;;;;;21.29;51.43;100915.53;2218857;39;114899;-56
2021/05/18 01:26:25;;;;;;;;;;;;;;;21.28;51.42;100915.84;2212556;39;115579;-56
2021/05/18 01:27:57;;;;;;;;;;;;;;;21.28;51.05;100915.84;2214254;39;114736;-56
2021/05/18 01:29:29;;;;;;;;;;;;;;;21.27;50.82;100923.44;2216521;39;114564;-56
2021/05/18 01:31:01;;;;;;;;;;;;;;;21.27;51.22;100919.78;2217064;39;115567;-56
2021/05/18 01:32:33;;;;;;;;;;;;;;;21.25;50.63;100919.28;2215175;39;116065;-57
2021/05/18 01:34:06;;;;;;;;;;;;;;;21.25;51.14;100919.28;2216862;39;114586;-56
2021/05/18 01:35:37;;;;;;;;;;;;;;;21.27;51.24;100925.41;2216023;39;114740;-56
2021/05/18 01:37:09;;;;;;;;;;;;;;;21.27;51.29;100928.22;2209290;39;115520;-56
2021/05/18 01:38:47;;;;;;;;;;;;;;;21.27;51.20;100925.41;2208401;39;115917;-56
2021/05/18 01:43:55;;;;;;;;;;;;;;;21.24;51.45;100928.84;2216498;39;115891;-56
2021/05/18 01:45:29;;;;;;;;;;;;;;;21.23;51.40;100928.00;2215784;39;116203;-56
2021/05/18 01:47:02;;;;;;;;;;;;;;;21.24;51.23;100937.28;2212806;39;115800;-56
2021/05/18 01:48:36;;;;;;;;;;;;;;;21.23;51.63;100933.63;2206848;39;113865;-56
2021/05/18 01:50:08;;;;;;;;;;;;;;;21.21;51.27;100938.72;2212927;39;113732;-56
2021/05/18 01:51:41;;;;;;;;;;;;;;;21.22;51.04;100933.94;2216928;39;113681;-58
2021/05/18 01:53:14;;;;;;;;;;;;;;;21.22;51.05;100936.75;2217470;39;113697;-56
2021/05/18 01:54:46;;;;;;;;;;;;;;;21.21;51.40;100929.50;2206619;39;113891;-56
2021/05/18 01:56:33;;;;;;;;;;;;;;;21.21;51.24;100940.72;2212514;39;113996;-56
2021/05/18 01:58:06;;;;;;;;;;;;;;;21.20;51.14;100934.28;2207327;39;113816;-56
2021/05/18 01:59:38;;;;;;;;;;;;;;;21.20;51.57;100933.44;2205097;39;113886;-56
2021/05/18 02:01:09;;;;;;;;;;;;;;;21.20;51.38;100939.06;2213969;39;113830;-56
2021/05/18 02:02:42;;;;;;;;;;;;;;;21.19;51.29;100937.38;2211448;39;113704;-56
2021/05/18 02:04:23;;;;;;;;;;;;;;;21.18;51.49;100941.34;2216506;39;113961;-56
2021/05/18 02:05:56;;;;;;;;;;;;;;;21.18;51.51;100939.34;2216827;39;114269;-56
2021/05/18 02:07:30;;;;;;;;;;;;;;;21.18;51.66;100936.56;2215572;39;113683;-56
2021/05/18 02:09:04;;;;;;;;;;;;;;;21.17;51.49;100940.50;2209682;39;114084;-56
2021/05/18 02:10:36;;;;;;;;;;;;;;;21.19;51.66;100937.38;2208475;39;114773;-56
2021/05/18 02:12:07;;;;;;;;;;;;;;;21.17;51.16;100939.66;2207953;39;113985;-56
2021/05/18 02:13:45;;;;;;;;;;;;;;;21.17;51.80;100943.31;2214348;39;114702;-56
2021/05/18 02:16:59;;;;;;;;;;;;;;;21.16;51.66;100944.47;2217477;39;115051;-56
2021/05/18 02:18:40;;;;;;;;;;;;;;;21.16;51.65;100938.84;2211757;39;114866;-56
2021/05/18 02:25:03;;;;;;;;;;;;;;;21.15;51.82;100951.22;2204921;39;114840;-56
2021/05/18 02:26:35;;;;;;;;;;;;;;;21.13;51.91;100944.25;2210900;39;115203;-56
2021/05/18 02:28:08;;;;;;;;;;;;;;;21.16;51.99;100954.88;2207698;39;113901;-56
2021/05/18 02:29:40;;;;;;;;;;;;;;;21.14;52.01;100951.53;2202445;39;114343;-57
2021/05/18 02:31:12;;;;;;;;;;;;;;;21.15;51.84;100951.22;2208164;39;114879;-56
2021/05/18 02:32:46;;;;;;;;;;;;;;;21.13;51.51;100947.88;2208517;39;115884;-56
2021/05/18 02:34:18;;;;;;;;;;;;;;;21.13;52.03;100952.69;2206104;39;115850;-56
2021/05/18 02:35:49;;;;;;;;;;;;;;;21.14;51.60;100951.53;2206657;39;115402;-56
2021/05/18 02:37:21;;;;;;;;;;;;;;;21.12;52.02;100962.25;2211214;39;115535;-56
2021/05/18 02:38:55;;;;;;;;;;;;;;;21.12;51.63;100960.22;2211382;39;115534;-56
2021/05/18 02:40:29;;;;;;;;;;;;;;;21.12;51.51;100959.44;2208940;39;115545;-56
2021/05/18 02:42:01;;;;;;;;;;;;;;;21.11;51.72;100954.94;2205836;39;115407;-57
2021/05/18 02:43:42;;;;;;;;;;;;;;;21.11;51.47;100950.16;2209149;39;116036;-56
2021/05/18 02:45:23;;;;;;;;;;;;;;;21.10;51.20;100953.28;2207500;39;115414;-56
2021/05/18 02:50:17;;;;;;;;;;;;;;;21.10;51.04;100959.72;2210523;39;115648;-56
2021/05/18 02:51:49;;;;;;;;;;;;;;;21.10;51.50;100961.72;2206911;39;115430;-56
2021/05/18 02:53:21;;;;;;;;;;;;;;;21.09;51.11;100960.03;2210757;39;116247;-56
2021/05/18 02:54:55;;;;;;;;;;;;;;;21.07;51.65;100965.97;2212671;39;114757;-56
2021/05/18 02:56:31;;;;;;;;;;;;;;;21.09;51.55;100962.84;2210885;39;113827;-56
2021/05/18 02:58:03;;;;;;;;;;;;;;;21.08;51.58;100967.63;2210189;39;114023;-56
2021/05/18 02:59:35;;;;;;;;;;;;;;;21.07;51.95;100965.16;2201177;39;113658;-56
2021/05/18 03:01:07;;;;;;;;;;;;;;;21.08;51.48;100967.63;2207625;39;113869;-56
2021/05/18 03:02:41;;;;;;;;;;;;;;;21.07;51.66;100968.78;2211015;39;113954;-57
2021/05/18 03:04:12;;;;;;;;;;;;;;;21.06;51.54;100969.09;2206871;39;113699;-56
2021/05/18 03:05:44;;;;;;;;;;;;;;;21.08;51.26;100966.78;2210339;39;113685;-56
2021/05/18 03:07:16;;;;;;;;;;;;;;;21.08;51.49;100967.63;2206969;39;113855;-56
2021/05/18 03:08:49;;;;;;;;;;;;;;;21.04;51.77;100963.78;2208179;39;113740;-56
2021/05/18 03:10:21;;;;;;;;;;;;;;;21.02;51.50;100970.88;2207837;39;113737;-56
2021/05/18 03:11:54;;;;;;;;;;;;;;;21.03;51.32;100973.34;2209146;39;113990;-57
2021/05/18 03:13:25;;;;;;;;;;;;;;;21.01;51.62;100966.38;2208677;39;113986;-56
2021/05/18 03:14:57;;;;;;;;;;;;;;;21.00;51.32;100967.53;2210789;39;113734;-56
2021/05/18 03:16:29;;;;;;;;;;;;;;;20.99;51.72;100968.66;2211594;39;114037;-56
2021/05/18 03:18:03;;;;;;;;;;;;;;;20.98;51.67;100972.63;2211706;39;114804;-56
2021/05/18 03:19:34;;;;;;;;;;;;;;;20.99;51.71;100971.47;2217151;39;114975;-56
2021/05/18 03:21:07;;;;;;;;;;;;;;;20.98;51.80;100972.63;2215688;39;114021;-56
2021/05/18 03:22:39;;;;;;;;;;;;;;;20.98;51.90;100964.22;2213788;39;114451;-56
2021/05/18 03:24:11;;;;;;;;;;;;;;;20.96;51.74;100966.47;2215960;39;114917;-56
2021/05/18 03:25:43;;;;;;;;;;;;;;;20.96;51.37;100952.44;2214648;39;114763;-56
2021/05/18 03:27:15;;;;;;;;;;;;;;;20.95;51.68;100962.00;2215717;39;115180;-56
2021/05/18 03:28:53;;;;;;;;;;;;;;;20.95;51.79;100967.63;2214713;39;115010;-56
2021/05/18 03:30:45;;;;;;;;;;;;;;;20.92;51.43;100969.09;2216224;39;113997;-57
2021/05/18 03:35:33;;;;;;;;;;;;;;;20.93;51.43;100972.72;2213920;39;115200;-56
2021/05/18 03:37:12;;;;;;;;;;;;;;;20.92;51.35;100971.91;2207896;39;115523;-55
2021/05/18 03:38:48;;;;;;;;;;;;;;;20.91;51.65;100967.41;2217234;39;114020;-56
2021/05/18 03:40:20;;;;;;;;;;;;;;;20.91;52.09;100966.56;2217322;39;115510;-57
2021/05/18 03:43:44;;;;;;;;;;;;;;;20.91;51.90;100969.38;2215194;39;116177;-56
2021/05/18 03:45:20;;;;;;;;;;;;;;;20.91;52.02;100969.38;2212899;39;115519;-56
2021/05/18 04:03:51;;;;;;;;;;;;;;;20.87;51.74;100972.00;2210276;39;113660;-57
2021/05/18 04:12:04;;;;;;;;;;;;;;;20.43;43.45;100980.94;2216115;39;113931;-56
2021/05/18 04:16:52;;;;;;;;;;;;;;;20.40;44.69;100975.94;2210263;39;114536;-56
2021/05/18 04:17:09;;;;;;;;;;;;;;;20.48;47.40;100980.88;2210696;39;114013;-57
2021/05/18 04:20:25;;;;;;;;;;;;;;;20.53;48.94;100989.19;2209354;39;113893;-56
2021/05/18 04:22:12;;;;;;;;;;;;;;;20.56;48.83;100994.19;2207920;39;113995;-57
2021/05/18 04:23:53;;;;;;;;;;;;;;;20.59;48.71;100995.53;2216448;39;113940;-56
2021/05/18 04:38:38;;;;;;;;;;;;;;;20.74;49.71;100993.28;2202755;39;114776;-56
2021/05/18 04:39:10;;;;;;;;;;;;;;;20.90;49.60;101001.41;2214562;39;114744;-57
2021/05/18 04:52:35;;;;;;;;;;;;;;;21.27;49.55;101018.13;2217490;39;115494;-59
2021/05/18 04:59:32;;;;;;;;;;;;;;;21.47;49.12;101022.53;2208084;39;116193;-57
2021/05/18 05:01:11;;;;;;;;;;;;;;;21.51;49.16;101020.75;2215299;39;115557;-57
2021/05/18 05:08:05;;;;;;;;;;;;;;;21.70;48.64;101022.31;2211918;39;115578;-57
2021/05/18 05:09:42;;;;;;;;;;;;;;;21.76;48.66;101019.38;2216008;39;115852;-57
2021/05/18 05:14:27;;;;;;;;;;;;;;;21.88;48.65;101033.72;2211501;39;116152;-57
2021/05/18 05:15:59;;;;;;;;;;;;;;;21.92;48.49;101043.19;2215756;39;113905;-57
2021/05/18 05:17:30;;;;;;;;;;;;;;;21.95;48.45;101039.78;2216456;39;113846;-57
2021/05/18 05:19:02;;;;;;;;;;;;;;;22.00;48.22;101045.28;2215582;39;113912;-57
2021/05/18 05:20:35;;;;;;;;;;;;;;;22.03;48.15;101042.66;2213367;39;113840;-57
2021/05/18 05:22:07;;;;;;;;;;;;;;;22.05;48.46;101040.38;2214670;39;113647;-57
2021/05/18 05:23:39;;;;;;;;;;;;;;;22.09;48.07;101049.00;2214711;39;113954;-58
2021/05/18 05:25:11;;;;;;;;;;;;;;;22.12;48.15;101035.13;2213918;39;114009;-57
2021/05/18 05:26:42;;;;;;;;;;;;;;;22.15;48.30;101039.31;2215705;39;113780;-56
2021/05/18 05:28:14;;;;;;;;;;;;;;;22.19;48.60;101037.53;2216233;39;114008;-57
2021/05/18 05:29:49;;;;;;;;;;;;;;;22.21;49.11;101038.06;2206867;39;113828;-56
2021/05/18 05:31:20;;;;;;;;;;;;;;;22.26;48.31;101035.09;2215005;39;113766;-56
2021/05/18 05:32:52;;;;;;;;;;;;;;;22.29;48.10;101037.28;2210461;39;114229;-57
2021/05/18 05:34:24;;;;;;;;;;;;;;;22.33;48.07;101045.94;2213148;39;113791;-56
2021/05/18 05:35:56;;;;;;;;;;;;;;;22.35;47.99;101047.25;2218985;39;113827;-56
2021/05/18 05:37:28;;;;;;;;;;;;;;;22.41;48.09;101050.78;2215982;39;114218;-55
2021/05/18 05:39:05;;;;;;;;;;;;;;;22.42;47.79;101050.47;2216473;39;114007;-56
2021/05/18 05:40:36;;;;;;;;;;;;;;;22.45;47.37;101054.63;2210231;39;115205;-56
2021/05/18 05:42:08;;;;;;;;;;;;;;;22.49;47.13;101048.03;2213785;39;114969;-56
2021/05/18 05:43:40;;;;;;;;;;;;;;;22.51;46.99;101047.72;2215218;39;114509;-56
2021/05/18 05:45:12;;;;;;;;;;;;;;;22.53;46.62;101053.88;2207667;39;115100;-55
2021/05/18 05:46:44;;;;;;;;;;;;;;;22.55;46.91;101049.59;2207114;39;114832;-56
2021/05/18 05:48:18;;;;;;;;;;;;;;;22.58;47.10;101050.91;2212719;39;114888;-56
2021/05/18 05:49:50;;;;;;;;;;;;;;;22.59;47.44;101052.59;2207605;39;114666;-57
2021/05/18 05:51:23;;;;;;;;;;;;;;;22.61;46.86;101056.78;2209445;39;114739;-56
2021/05/18 05:52:55;;;;;;;;;;;;;;;22.60;47.00;101060.72;2217174;39;114910;-56
2021/05/18 05:54:27;;;;;;;;;;;;;;;22.62;46.75;101058.41;2208577;39;114000;-56
2021/05/18 05:55:59;;;;;;;;;;;;;;;22.63;46.71;101057.25;2214291;39;113931;-56
2021/05/18 05:57:36;;;;;;;;;;;;;;;22.65;46.78;101061.75;2218869;39;114949;-57
2021/05/18 05:59:08;;;;;;;;;;;;;;;22.66;46.49;101057.78;2214630;39;115469;-56
2021/05/18 06:00:40;;;;;;;;;;;;;;;22.67;46.50;101062.28;2216727;39;115550;-56
2021/05/18 06:02:12;;;;;;;;;;;;;;;22.66;46.44;101067.06;2214071;39;116051;-56
2021/05/18 06:03:44;;;;;;;;;;;;;;;22.67;46.43;101065.91;2215308;39;115913;-56
2021/05/18 06:05:16;;;;;;;;;;;;;;;22.69;46.41;101069.25;2217277;39;114857;-56
2021/05/18 06:06:47;;;;;;;;;;;;;;;22.69;46.17;101059.94;2208327;39;115519;-57
2021/05/18 06:08:19;;;;;;;;;;;;;;;22.67;46.38;101063.06;2212365;39;115467;-57
2021/05/18 06:09:57;;;;;;;;;;;;;;;22.70;46.13;101070.09;2217078;39;114589;-56
2021/05/18 06:15:05;;;;;;;;;;;;;;;22.69;46.19;101076.84;2214176;39;115544;-56
2021/05/18 06:41:37;;;;;;;;;;;;;;;22.59;45.84;101075.97;2209081;39;113959;-56
2021/05/18 06:43:14;;;;;;;;;;;;;;;22.58;46.03;101074.28;2210082;39;114125;-56
2021/05/18 06:46:49;;;;;;;;;;;;;;;22.57;46.50;101075.47;2214990;39;114881;-56
2021/05/18 06:48:19;;;;;;;;;;;;;;;22.56;46.49;101072.94;2206473;39;114731;-56
2021/05/18 06:49:57;;;;;;;;;;;;;;;22.54;46.26;101078.06;2213896;39;114812;-56
2021/05/18 06:51:29;;;;;;;;;;;;;;;22.53;46.34;101077.22;2207461;39;114903;-56
2021/05/18 06:53:01;;;;;;;;;;;;;;;22.53;46.43;101082.06;2213369;39;115634;-56
2021/05/18 06:54:32;;;;;;;;;;;;;;;22.52;46.40;101071.94;2209879;39;115029;-56
2021/05/18 06:56:05;;;;;;;;;;;;;;;22.50;46.31;101080.69;2214387;39;114979;-57
2021/05/18 06:57:39;;;;;;;;;;;;;;;22.49;46.12;101084.66;2213999;39;114512;-56
2021/05/18 07:00:49;;;;;;;;;;;;;;;22.48;46.15;101087.81;2216157;39;114783;-56
2021/05/18 07:02:21;;;;;;;;;;;;;;;22.47;46.29;101086.13;2213803;39;114999;-56
2021/05/18 07:03:55;;;;;;;;;;;;;;;22.46;46.22;101090.09;2217132;39;114896;-56
2021/05/18 07:07:10;;;;;;;;;;;;;;;22.45;46.38;101085.59;2217031;39;114805;-56
2021/05/18 07:08:56;;;;;;;;;;;;;;;22.43;46.13;101093.56;2217314;39;115823;-56
2021/05/18 07:10:28;;;;;;;;;;;;;;;22.41;46.18;101093.84;2214352;39;115496;-56
2021/05/18 07:12:00;;;;;;;;;;;;;;;22.40;46.35;101097.81;2216903;39;115637;-56
2021/05/18 07:13:32;;;;;;;;;;;;;;;22.40;46.43;101102.63;2210146;39;115854;-56
2021/05/18 07:15:04;;;;;;;;;;;;;;;22.38;46.43;101105.75;2201131;39;116006;-56
2021/05/18 07:16:36;;;;;;;;;;;;;;;22.38;46.43;101096.47;2206046;39;115278;-56
2021/05/18 07:18:08;;;;;;;;;;;;;;;22.37;46.37;101097.63;2207946;39;115844;-56
2021/05/18 07:19:40;;;;;;;;;;;;;;;22.36;46.57;101087.50;2207630;39;114857;-56
2021/05/18 07:21:12;;;;;;;;;;;;;;;22.35;46.66;101088.69;2214073;39;116219;-56
2021/05/18 07:22:44;;;;;;;;;;;;;;;22.33;46.52;101091.81;2216847;39;115517;-56
2021/05/18 07:24:21;;;;;;;;;;;;;;;22.31;46.93;101091.28;2216182;39;115524;-55
2021/05/18 07:25:52;;;;;;;;;;;;;;;22.29;46.98;101085.16;2216630;39;115878;-56
2021/05/18 07:27:24;;;;;;;;;;;;;;;22.30;47.07;101088.78;2207341;39;115952;-56
2021/05/18 07:28:56;;;;;;;;;;;;;;;22.29;46.99;101087.97;2215404;39;114702;-56
2021/05/18 07:30:28;;;;;;;;;;;;;;;22.33;47.62;101093.78;2215405;39;113589;-56
2021/05/18 07:31:59;;;;;;;;;;;;;;;22.09;41.55;101091.22;2208875;39;113792;-55
2021/05/18 07:33:32;;;;;;;;;;;;;;;21.68;42.15;101089.25;2214869;39;113796;-56
2021/05/18 07:35:05;;;;;;;;;;;;;;;21.69;42.50;101098.53;2209590;39;113919;-56
2021/05/18 07:36:37;;;;;;;;;;;;;;;21.75;43.06;101097.28;2206532;39;113740;-55
2021/05/18 07:38:09;;;;;;;;;;;;;;;21.78;44.04;101102.28;2212410;39;113722;-57
2021/05/18 07:39:40;;;;;;;;;;;;;;;21.84;44.36;101101.03;2210014;39;114448;-56
2021/05/18 07:41:12;;;;;;;;;;;;;;;21.88;44.17;101102.06;2214357;39;113605;-56
2021/05/18 07:42:44;;;;;;;;;;;;;;;21.93;44.69;101098.34;2210627;39;114654;-56
2021/05/18 07:44:15;;;;;;;;;;;;;;;21.93;44.71;101107.63;2208612;39;113780;-56
2021/05/18 07:45:54;;;;;;;;;;;;;;;21.94;44.84;101109.28;2209004;39;113762;-55
2021/05/18 07:47:31;;;;;;;;;;;;;;;21.92;44.36;101105.91;2204943;39;114114;-56
2021/05/18 07:59:16;;;;;;;;;;;;;;;21.76;43.49;101100.94;2208040;39;114868;-56
2021/05/18 08:00:41;;;;;;;;;;;;;;;21.76;43.47;101103.75;2206773;39;114904;-56
2021/05/18 08:05:25;;;;;;;;;;;;;;;21.62;42.35;101103.75;2217378;39;114898;-57
2021/05/18 08:06:58;;;;;;;;;;;;;;;21.47;42.19;101110.50;2214838;39;114139;-56
2021/05/18 08:08:30;;;;;;;;;;;;;;;21.48;42.68;101109.38;2207414;39;114706;-56
2021/05/18 08:11:38;;;;;;;;;;;;;;;21.50;43.40;101112.69;2208925;39;114459;-55
2021/05/18 08:13:10;;;;;;;;;;;;;;;21.51;43.38;101113.53;2214121;39;114788;-56
2021/05/18 08:14:48;;;;;;;;;;;;;;;21.52;43.40;101120.81;2220103;39;113891;-56
2021/05/18 08:18:09;;;;;;;;;;;;;;;21.52;43.37;101118.00;2210779;39;115452;-56
2021/05/18 08:21:39;;;;;;;;;;;;;;;21.45;43.17;101111.94;2209263;39;115915;-56
2021/05/18 08:47:46;;;;;;;;;;;;;;;21.46;43.86;101117.25;2214643;39;113798;-57
2021/05/18 08:49:34;;;;;;;;;;;;;;;21.48;43.86;101109.38;2209651;39;113780;-56
2021/05/18 09:43:58;;;;;;;;;;;;;;;22.24;43.48;101106.94;2212275;39;115448;-56
2021/05/18 10:24:20;;;;;;;;;;;;;;;22.01;41.45;101092.81;2211042;39;114870;-56
2021/05/18 10:26:42;;;;;;;;;;;;;;;22.04;41.33;101086.53;2210115;39;114910;-56
2021/05/18 10:34:56;;;;;;;;;;;;;;;22.09;41.25;101099.66;2208136;39;114874;-55
2021/05/18 10:36:30;;;;;;;;;;;;;;;22.10;41.16;101093.72;2210051;39;114837;-56
2021/05/18 10:38:05;;;;;;;;;;;;;;;22.14;41.26;101093.94;2210452;39;115478;-55
2021/05/18 10:39:36;;;;;;;;;;;;;;;22.16;41.43;101097.28;2210192;39;114950;-55
2021/05/18 10:41:10;;;;;;;;;;;;;;;22.19;41.57;101091.00;2209357;39;114961;-56
2021/05/18 10:42:45;;;;;;;;;;;;;;;22.21;41.46;101102.78;2208898;39;115678;-56
2021/05/18 10:44:17;;;;;;;;;;;;;;;22.20;41.81;101101.13;2209116;39;114848;-55
2021/05/18 10:45:56;;;;;;;;;;;;;;;22.16;41.72;101102.91;2208734;39;115553;-56
2021/05/18 10:47:42;;;;;;;;;;;;;;;22.13;41.60;101100.69;2208012;39;115443;-55
2021/05/18 10:49:15;;;;;;;;;;;;;;;22.13;41.64;101109.97;2211101;39;115850;-56
2021/05/18 10:50:46;;;;;;;;;;;;;;;22.11;42.00;101101.03;2210381;39;115448;-55
2021/05/18 10:52:35;;;;;;;;;;;;;;;22.11;41.37;101094.56;2211173;39;115474;-56
2021/05/18 10:54:14;;;;;;;;;;;;;;;22.10;42.03;101093.72;2210055;39;115433;-55
2021/05/18 10:55:49;;;;;;;;;;;;;;;22.10;42.01;101090.91;2207181;39;114538;-55
2021/05/18 10:57:28;;;;;;;;;;;;;;;22.14;41.72;101089.13;2207576;39;115903;-55
2021/05/18 10:58:59;;;;;;;;;;;;;;;22.17;41.85;101085.69;2209232;39;115473;-56
2021/05/18 11:00:31;;;;;;;;;;;;;;;22.20;42.08;101077.75;2206049;39;114195;-55
2021/05/18 11:02:06;;;;;;;;;;;;;;;22.21;42.10;101077.47;2209624;39;113841;-56
2021/05/18 11:03:38;;;;;;;;;;;;;;;22.23;42.26;101083.59;2209704;39;113662;-56
2021/05/18 11:05:13;;;;;;;;;;;;;;;22.17;42.20;101082.03;2210136;39;113844;-56
2021/05/18 11:06:48;;;;;;;;;;;;;;;22.15;42.31;101085.19;2210454;39;114304;-56
2021/05/18 11:08:20;;;;;;;;;;;;;;;22.13;42.38;101087.47;2210797;39;114004;-55
2021/05/18 11:09:53;;;;;;;;;;;;;;;22.11;42.30;101097.38;2210219;39;113795;-56
2021/05/18 11:11:26;;;;;;;;;;;;;;;22.11;42.33;101092.59;2210015;39;113993;-55
2021/05/18 11:13:01;;;;;;;;;;;;;;;22.11;42.37;101086.13;2208905;39;113753;-56
2021/05/18 11:14:36;;;;;;;;;;;;;;;22.15;42.17;101075.91;2209772;39;113940;-55
2021/05/18 11:16:14;;;;;;;;;;;;;;;22.17;42.36;101082.88;2210147;39;113959;-56
2021/05/18 11:17:47;;;;;;;;;;;;;;;22.17;42.17;101080.06;2211872;39;113968;-55
2021/05/18 11:19:19;;;;;;;;;;;;;;;22.13;42.00;101072.56;2208768;39;114204;-55
2021/05/18 11:20:59;;;;;;;;;;;;;;;22.16;42.09;101081.22;2215815;39;113702;-55
2021/05/18 11:24:14;;;;;;;;;;;;;;;22.16;41.84;101074.75;2217620;39;115717;-56
2021/05/18 11:25:52;;;;;;;;;;;;;;;22.12;41.93;101082.97;2217863;39;114835;-56
2021/05/18 11:27:25;;;;;;;;;;;;;;;22.10;42.14;101074.03;2207146;39;114791;-55
2021/05/18 11:28:57;;;;;;;;;;;;;;;22.08;41.99;101079.13;2210982;39;115017;-56
2021/05/18 11:30:29;;;;;;;;;;;;;;;22.06;42.21;101075.81;2215248;39;115377;-56
2021/05/18 11:32:07;;;;;;;;;;;;;;;22.06;41.91;101072.16;2217703;39;115060;-56
2021/05/18 11:33:41;;;;;;;;;;;;;;;22.09;41.85;101074.34;2217470;39;115380;-56
2021/05/18 11:35:13;;;;;;;;;;;;;;;22.10;41.69;101070.38;2210463;39;113911;-56
2021/05/18 11:36:45;;;;;;;;;;;;;;;22.07;41.93;101066.22;2215579;39;114826;-55
2021/05/18 11:38:18;;;;;;;;;;;;;;;22.09;41.97;101068.72;2217842;39;115342;-55
2021/05/18 11:39:49;;;;;;;;;;;;;;;22.08;41.96;101062.25;2217475;39;113891;-56
2021/05/18 11:41:22;;;;;;;;;;;;;;;22.07;41.97;101071.88;2210284;39;113862;-55
2021/05/18 11:42:54;;;;;;;;;;;;;;;22.05;42.23;101062.91;2210629;39;115427;-55
2021/05/18 11:44:33;;;;;;;;;;;;;;;22.05;42.08;101067.69;2211327;39;115023;-55
2021/05/18 11:46:09;;;;;;;;;;;;;;;22.04;41.84;101064.03;2210449;39;115814;-55
2021/05/18 11:47:41;;;;;;;;;;;;;;;22.04;41.69;101068.81;2212459;39;115247;-56
2021/05/18 11:49:14;;;;;;;;;;;;;;;22.06;41.55;101070.19;2206775;39;115235;-56
2021/05/18 11:50:46;;;;;;;;;;;;;;;22.05;41.55;101062.06;2207897;39;115451;-55
2021/05/18 11:52:18;;;;;;;;;;;;;;;22.07;41.63;101060.59;2208070;39;115628;-56
2021/05/18 11:53:51;;;;;;;;;;;;;;;22.06;41.76;101056.13;2211402;39;115648;-55
2021/05/18 11:55:26;;;;;;;;;;;;;;;22.11;41.53;101063.63;2210104;39;115437;-55
2021/05/18 11:57:01;;;;;;;;;;;;;;;22.07;41.49;101062.59;2214121;39;114570;-56
2021/05/18 11:58:32;;;;;;;;;;;;;;;22.09;41.60;101060.28;2217936;39;115499;-55
2021/05/18 12:00:05;;;;;;;;;;;;;;;22.10;41.58;101056.31;2217731;39;114544;-57
2021/05/18 12:01:58;;;;;;;;;;;;;;;22.11;41.42;101050.38;2210733;39;117498;-56
2021/05/18 12:03:30;;;;;;;;;;;;;;;22.13;41.19;101050.03;2206522;39;114508;-55
2021/05/18 12:05:04;;;;;;;;;;;;;;;22.12;41.35;101054.84;2207594;39;114510;-56
2021/05/18 12:06:39;;;;;;;;;;;;;;;22.14;41.22;101058.19;2211067;39;115538;-55
2021/05/18 12:08:14;;;;;;;;;;;;;;;22.14;41.12;101048.91;2215571;39;113697;-56
2021/05/18 12:09:50;;;;;;;;;;;;;;;22.08;41.14;101045.38;2215420;39;113790;-56
2021/05/18 12:11:22;;;;;;;;;;;;;;;22.04;41.33;101049.97;2210430;39;114208;-56
2021/05/18 12:12:54;;;;;;;;;;;;;;;22.03;41.32;101053.13;2214332;39;113709;-55
2021/05/18 12:14:27;;;;;;;;;;;;;;;21.98;41.50;101051.25;2217152;39;114254;-55
2021/05/18 12:16:00;;;;;;;;;;;;;;;21.97;41.33;101049.56;2210414;39;113691;-56
2021/05/18 12:17:33;;;;;;;;;;;;;;;21.94;41.44;101055.81;2208410;39;113971;-56
2021/05/18 12:19:04;;;;;;;;;;;;;;;21.92;41.65;101062.88;2204139;39;113954;-56
2021/05/18 12:20:39;;;;;;;;;;;;;;;21.89;41.51;101058.75;2211592;39;113702;-56
2021/05/18 12:22:11;;;;;;;;;;;;;;;21.87;41.59;101065.81;2216403;39;114084;-56
2021/05/18 12:23:43;;;;;;;;;;;;;;;21.86;41.51;101064.13;2217770;39;113991;-56